Time;durP1;ratioP1;P1;durP2;ratioP2;P2;SDS_P1;SDS_P2;PMS_P1;PMS_P2;Temp;Humidity;BMP_temperature;BMP_pressure;BME280_temperature;BME280_humidity;BME280_pressure;Samples;Min_cycle;Max_cycle;Signal;HPM_P1;HPM_P2
2022/10/04 00:01:01;;;;;;;5.90;2.00;;;;;;;10.16;91.37;101645.15;107854;1277;74933;-75
2022/10/04 00:03:40;;;;;;;8.70;2.20;;;;;;;10.15;91.47;101644.61;107600;1277;71415;-76
2022/10/04 00:06:14;;;;;;;6.80;1.80;;;;;;;10.13;91.61;101643.66;107824;1277;73016;-76
2022/10/04 00:08:43;;;;;;;7.30;2.10;;;;;;;10.12;91.47;101638.65;107855;1278;61509;-76
2022/10/04 00:11:24;;;;;;;7.70;2.40;;;;;;;10.10;91.78;101632.83;107752;1278;63194;-76
2022/10/04 00:14:00;;;;;;;6.10;2.10;;;;;;;10.08;91.75;101641.73;107810;1278;75436;-75
2022/10/04 00:16:31;;;;;;;5.40;1.90;;;;;;;10.07;91.68;101639.30;107516;1279;72484;-76
2022/10/04 00:19:16;;;;;;;7.60;1.80;;;;;;;10.07;91.91;101629.60;107798;1279;73589;-76
2022/10/04 00:21:55;;;;;;;5.20;1.70;;;;;;;10.08;92.04;101620.36;107690;1277;62418;-76
2022/10/04 00:24:23;;;;;;;6.60;2.00;;;;;;;10.09;91.88;101619.02;107812;1279;60470;-75
2022/10/04 00:26:49;;;;;;;5.80;1.80;;;;;;;10.09;91.75;101618.79;107792;1279;73872;-75
2022/10/04 00:29:42;;;;;;;5.80;2.10;;;;;;;10.11;91.86;101620.40;107768;1277;72627;-76
2022/10/04 00:32:23;;;;;;;7.00;1.80;;;;;;;10.12;91.86;101618.67;107683;1279;72661;-76
2022/10/04 00:34:51;;;;;;;9.40;1.90;;;;;;;10.15;91.92;101615.08;107817;1279;59938;-76
2022/10/04 00:37:19;;;;;;;6.30;1.90;;;;;;;10.16;91.71;101610.48;107522;1279;60480;-76
2022/10/04 00:39:56;;;;;;;6.00;1.80;;;;;;;10.16;91.75;101609.95;107703;1279;75033;-76
2022/10/04 00:42:54;;;;;;;6.60;1.90;;;;;;;10.17;91.65;101608.66;107791;1279;71527;-76
2022/10/04 00:45:27;;;;;;;5.30;1.70;;;;;;;10.18;91.99;101614.55;107581;1279;74116;-77
2022/10/04 00:48:07;;;;;;;7.10;1.80;;;;;;;10.19;91.91;101612.00;107679;1279;59563;-75
2022/10/04 00:50:42;;;;;;;8.20;1.90;;;;;;;10.20;91.90;101605.20;107765;1278;60294;-76
2022/10/04 00:53:37;;;;;;;5.40;1.60;;;;;;;10.21;91.92;101601.35;107534;1281;74042;-76
2022/10/04 00:56:12;;;;;;;4.90;1.80;;;;;;;10.20;91.79;101596.34;107788;1279;71344;-76
2022/10/04 00:59:01;;;;;;;6.50;1.90;;;;;;;10.19;91.98;101590.63;107760;1279;71831;-75
2022/10/04 01:01:30;;;;;;;4.80;1.90;;;;;;;10.18;91.92;101594.23;107580;1279;62296;-75
2022/10/04 01:04:01;;;;;;;6.70;1.90;;;;;;;10.18;92.21;101589.64;107770;1278;61375;-75
2022/10/04 01:06:29;;;;;;;4.70;1.70;;;;;;;10.18;92.26;101589.80;107801;1279;74099;-76
2022/10/04 01:09:02;;;;;;;7.10;1.90;;;;;;;10.19;92.46;101590.92;107678;1278;71561;-75
2022/10/04 01:11:34;;;;;;;6.80;1.70;;;;;;;10.20;92.47;101591.58;107671;1279;72849;-76
2022/10/04 01:14:08;;;;;;;6.40;1.90;;;;;;;10.18;92.54;101588.70;107626;1279;61985;-76
2022/10/04 01:16:36;;;;;;;7.10;2.10;;;;;;;10.16;92.69;101584.17;107638;1279;60785;-76
2022/10/04 01:19:28;;;;;;;9.80;1.90;;;;;;;10.14;93.38;101579.83;107806;1278;73973;-76
2022/10/04 01:22:07;;;;;;;8.00;1.70;;;;;;;10.13;93.48;101572.70;107754;1279;72884;-76
2022/10/04 01:24:36;;;;;;;6.10;2.10;;;;;;;10.13;93.54;101562.53;107777;1279;73254;-76
2022/10/04 01:27:23;;;;;;;8.20;2.30;;;;;;;10.15;93.46;101561.33;107658;1278;62283;-76
2022/10/04 01:29:50;;;;;;;10.70;2.10;;;;;;;10.17;93.51;101565.21;107798;1277;59627;-76
2022/10/04 01:32:17;;;;;;;8.00;2.00;;;;;;;10.16;93.72;101570.71;107804;1279;75242;-76
2022/10/04 01:34:44;;;;;;;5.00;1.60;;;;;;;10.15;93.71;101561.13;107728;1278;70520;-76
2022/10/04 01:37:13;;;;;;;5.30;1.70;;;;;;;10.13;94.10;101557.45;107792;1279;73029;-76
2022/10/04 01:39:40;;;;;;;9.30;2.10;;;;;;;10.12;94.25;101560.44;107767;1279;63162;-76
2022/10/04 01:42:09;;;;;;;7.50;1.90;;;;;;;10.11;94.50;101555.14;107761;1277;60560;-77
2022/10/04 01:44:44;;;;;;;7.30;2.00;;;;;;;10.11;94.73;101545.05;107785;1279;75131;-76
2022/10/04 01:47:17;;;;;;;8.60;1.80;;;;;;;10.13;94.73;101549.50;107740;1279;71196;-76
2022/10/04 01:49:45;;;;;;;5.50;1.60;;;;;;;10.15;94.55;101561.13;107695;1279;74188;-76
2022/10/04 01:52:22;;;;;;;8.80;2.20;;;;;;;10.17;94.69;101573.61;107702;1279;61973;-76
2022/10/04 01:55:04;;;;;;;8.30;2.40;;;;;;;10.18;94.98;101571.10;107780;1278;61576;-76
2022/10/04 01:57:54;;;;;;;6.50;2.40;;;;;;;10.19;95.08;101564.08;107735;1279;75845;-76
2022/10/04 02:00:22;;;;;;;7.70;1.90;;;;;;;10.20;95.08;101555.80;107276;1282;71791;-76
2022/10/04 02:03:03;;;;;;;7.40;1.90;;;;;;;10.22;95.31;101551.24;107239;1281;71786;-76
2022/10/04 02:05:37;;;;;;;6.70;1.80;;;;;;;10.24;94.93;101554.48;107367;1281;61959;-76
2022/10/04 02:08:08;;;;;;;6.40;1.90;;;;;;;10.25;94.96;101563.14;107452;1282;61685;-76
2022/10/04 02:10:38;;;;;;;8.60;2.20;;;;;;;10.25;95.23;101557.51;107429;1281;73978;-76
2022/10/04 02:13:14;;;;;;;7.30;2.10;;;;;;;10.26;95.10;101544.85;107253;1281;72424;-76
2022/10/04 02:15:41;;;;;;;9.30;2.10;;;;;;;10.27;95.06;101543.50;107384;1282;72848;-76
2022/10/04 02:18:17;;;;;;;8.50;2.40;;;;;;;10.29;95.06;101541.89;107301;1281;62927;-76
2022/10/04 02:20:46;;;;;;;6.20;1.90;;;;;;;10.32;94.85;101530.33;107420;1269;61794;-77
2022/10/04 02:23:15;;;;;;;8.70;2.00;;;;;;;10.36;95.03;101528.89;107776;1277;77206;-76
2022/10/04 02:25:42;;;;;;;9.20;2.20;;;;;;;10.39;94.76;101525.56;107568;1278;72452;-75
2022/10/04 02:28:10;;;;;;;7.00;1.90;;;;;;;10.42;94.73;101525.79;107580;1279;74895;-75
2022/10/04 02:30:39;;;;;;;8.90;2.30;;;;;;;10.45;94.58;101523.59;107781;1277;63504;-75
2022/10/04 02:33:06;;;;;;;9.00;2.00;;;;;;;10.46;94.70;101527.52;107571;1279;60456;-75
2022/10/04 02:35:36;;;;;;;9.10;2.00;;;;;;;10.47;94.65;101529.51;107794;1277;75803;-75
2022/10/04 02:38:08;;;;;;;9.00;2.00;;;;;;;10.49;94.61;101533.55;107625;1278;72649;-76
2022/10/04 02:40:53;;;;;;;7.40;1.90;;;;;;;10.52;94.48;101526.91;107623;1277;74023;-76
2022/10/04 02:43:37;;;;;;;6.60;1.90;;;;;;;10.56;94.40;101525.41;107835;1277;63090;-76
2022/10/04 02:46:13;;;;;;;7.60;2.30;;;;;;;10.59;94.16;101521.89;107819;1277;60304;-76
2022/10/04 02:48:52;;;;;;;8.30;1.80;;;;;;;10.62;94.19;101514.98;107605;1279;74351;-76
2022/10/04 02:51:37;;;;;;;7.20;1.70;;;;;;;10.64;93.99;101511.96;107578;1279;71578;-76
2022/10/04 02:54:32;;;;;;;5.50;1.70;;;;;;;10.66;93.97;101509.39;107785;1277;74683;-76
2022/10/04 02:57:00;;;;;;;8.30;1.90;;;;;;;10.69;93.83;101505.93;107798;1278;63471;-76
2022/10/04 02:59:29;;;;;;;6.10;1.80;;;;;;;10.71;93.71;101506.77;107792;1277;61614;-76
2022/10/04 03:02:01;;;;;;;7.30;2.60;;;;;;;10.72;93.60;101506.35;107822;1278;75132;-76
2022/10/04 03:04:31;;;;;;;6.40;1.90;;;;;;;10.73;93.51;101512.45;107814;1277;72248;-76
2022/10/04 03:07:06;;;;;;;9.00;2.10;;;;;;;10.73;93.50;101513.14;107812;1277;74000;-76
2022/10/04 03:09:35;;;;;;;5.60;1.60;;;;;;;10.73;93.51;101508.73;107813;1277;60659;-76
2022/10/04 03:12:03;;;;;;;7.40;1.90;;;;;;;10.72;93.50;101505.45;107827;1277;60365;-76
2022/10/04 03:14:31;;;;;;;9.60;2.10;;;;;;;10.71;93.54;101505.20;107584;1278;75140;-76
2022/10/04 03:17:02;;;;;;;9.60;1.90;;;;;;;10.70;93.58;101498.95;107344;1279;70579;-76
2022/10/04 03:19:31;;;;;;;9.00;2.00;;;;;;;10.70;93.58;101496.45;107791;1277;73240;-76
2022/10/04 03:22:02;;;;;;;7.90;1.80;;;;;;;10.70;93.69;101493.80;107680;1279;62372;-76
2022/10/04 03:24:36;;;;;;;5.70;1.50;;;;;;;10.70;93.57;101496.24;107713;1279;61040;-75
2022/10/04 03:27:07;;;;;;;8.20;2.20;;;;;;;10.71;93.71;101495.09;107087;1279;418301;-75
2022/10/04 03:29:38;;;;;;;7.00;1.90;;;;;;;10.72;93.46;101494.63;107787;1279;71887;-75
2022/10/04 03:32:05;;;;;;;9.90;2.30;;;;;;;10.73;93.65;101492.80;107559;1279;72809;-76
2022/10/04 03:34:40;;;;;;;5.60;1.60;;;;;;;10.74;93.52;101491.10;107792;1279;63585;-76
2022/10/04 03:37:12;;;;;;;7.00;2.00;;;;;;;10.75;93.33;101488.52;107692;1279;60680;-76
2022/10/04 03:39:53;;;;;;;8.10;1.80;;;;;;;10.76;93.36;101489.52;107768;1277;75476;-76
2022/10/04 03:42:35;;;;;;;5.90;1.60;;;;;;;10.77;93.35;101488.66;107580;1279;72440;-76
2022/10/04 03:45:06;;;;;;;7.80;2.00;;;;;;;10.78;93.21;101482.41;107429;1281;72705;-75
2022/10/04 03:47:36;;;;;;;8.00;1.80;;;;;;;10.78;93.27;101483.20;107444;1279;63384;-77
2022/10/04 03:50:20;;;;;;;10.30;2.00;;;;;;;10.77;93.29;101479.45;107673;1278;60452;-77
2022/10/04 03:52:52;;;;;;;7.80;2.30;;;;;;;10.78;93.18;101477.77;107797;1278;74867;-77
2022/10/04 03:55:21;;;;;;;8.30;1.80;;;;;;;10.78;93.23;101478.32;107676;1279;72266;-77
2022/10/04 03:57:48;;;;;;;7.80;2.30;;;;;;;10.79;93.15;101475.00;107529;1279;74162;-77
2022/10/04 04:00:17;;;;;;;9.50;2.20;;;;;;;10.79;93.20;101477.85;107639;1279;63294;-77
2022/10/04 04:02:51;;;;;;;7.10;2.10;;;;;;;10.79;93.06;101476.38;107654;1279;60327;-77
2022/10/04 04:05:28;;;;;;;7.10;1.90;;;;;;;10.79;93.12;101478.39;107666;1277;74019;-77
2022/10/04 04:08:13;;;;;;;8.60;2.00;;;;;;;10.78;93.11;101475.64;107704;1279;72180;-77
2022/10/04 04:10:48;;;;;;;7.00;2.00;;;;;;;10.78;93.04;101470.53;107800;1279;73751;-77
2022/10/04 04:13:50;;;;;;;6.60;1.90;;;;;;;10.76;93.20;101465.38;107711;1279;61408;-77
2022/10/04 04:16:20;;;;;;;9.80;2.40;;;;;;;10.75;93.03;101471.02;107759;1279;60668;-77
2022/10/04 04:18:48;;;;;;;7.50;1.80;;;;;;;10.74;92.88;101473.05;107713;1279;75184;-77
2022/10/04 04:21:18;;;;;;;7.70;1.90;;;;;;;10.73;92.96;101472.48;107729;1278;72345;-77
2022/10/04 04:23:50;;;;;;;5.70;1.80;;;;;;;10.71;92.96;101471.97;107485;1281;74051;-77
2022/10/04 04:26:33;;;;;;;5.70;2.10;;;;;;;10.68;92.96;101469.40;107670;1279;62313;-77
2022/10/04 04:29:30;;;;;;;9.60;2.20;;;;;;;10.66;93.20;101472.30;107764;1278;60376;-77
2022/10/04 04:32:04;;;;;;;8.10;2.10;;;;;;;10.64;93.15;101478.13;107753;1279;75204;-77
2022/10/04 04:34:33;;;;;;;7.50;2.20;;;;;;;10.63;93.10;101479.56;107686;1279;71579;-77
2022/10/04 04:37:04;;;;;;;6.90;2.10;;;;;;;10.60;93.25;101473.77;107707;1279;72805;-78
2022/10/04 04:39:41;;;;;;;7.00;2.10;;;;;;;10.57;93.38;101468.34;107535;1279;62296;-78
2022/10/04 04:42:18;;;;;;;6.00;1.60;;;;;;;10.56;93.57;101464.25;107540;1279;61354;-78
2022/10/04 04:44:59;;;;;;;7.00;2.10;;;;;;;10.55;93.78;101459.98;107510;1279;75268;-78
2022/10/04 04:47:42;;;;;;;7.90;2.10;;;;;;;10.55;93.70;101461.39;107829;1278;72129;-79
2022/10/04 04:50:14;;;;;;;9.30;2.50;;;;;;;10.53;93.81;101459.40;107625;1279;73647;-79
2022/10/04 04:52:47;;;;;;;7.30;2.10;;;;;;;10.52;94.05;101454.05;107752;1279;63312;-79
2022/10/04 04:55:26;;;;;;;6.90;2.20;;;;;;;10.53;93.90;101457.34;107594;1279;60537;-79
2022/10/04 04:57:56;;;;;;;7.70;2.30;;;;;;;10.52;93.95;101453.03;107748;1279;73912;-79
2022/10/04 05:00:29;;;;;;;7.50;2.10;;;;;;;10.50;94.11;101459.17;107860;1279;71335;-79
2022/10/04 05:02:59;;;;;;;8.60;2.50;;;;;;;10.50;94.11;101459.03;107826;1278;73125;-79
2022/10/04 05:05:27;;;;;;;5.40;2.10;;;;;;;10.50;93.99;101462.42;107500;1281;62973;-79
2022/10/04 05:08:09;;;;;;;6.80;1.90;;;;;;;10.50;94.12;101468.99;107752;1279;60641;-79
2022/10/04 05:10:46;;;;;;;10.20;2.10;;;;;;;10.50;94.00;101470.86;107636;1279;74139;-79
2022/10/04 05:13:15;;;;;;;7.60;2.00;;;;;;;10.51;93.95;101472.58;107544;1279;72431;-79
2022/10/04 05:15:42;;;;;;;7.90;2.30;;;;;;;10.52;93.92;101478.07;107580;1279;73050;-78
2022/10/04 05:18:27;;;;;;;8.90;2.30;;;;;;;10.52;93.96;101478.42;107597;1279;62149;-78
2022/10/04 05:20:59;;;;;;;6.90;2.00;;;;;;;10.52;93.86;101479.48;107625;1279;60424;-75
2022/10/04 05:23:26;;;;;;;7.10;2.20;;;;;;;10.54;94.03;101479.13;107725;1279;75467;-75
2022/10/04 05:25:53;;;;;;;8.20;2.10;;;;;;;10.55;93.84;101480.07;107604;1279;72429;-75
2022/10/04 05:28:20;;;;;;;10.30;2.70;;;;;;;10.56;93.90;101480.15;107701;1279;73866;-75
2022/10/04 05:30:59;;;;;;;6.70;2.10;;;;;;;10.57;93.75;101483.20;107682;1279;60420;-75
2022/10/04 05:33:53;;;;;;;8.40;2.40;;;;;;;10.58;93.83;101483.36;107755;1279;59856;-75
2022/10/04 05:36:54;;;;;;;6.40;2.10;;;;;;;10.57;93.68;101480.41;107711;1279;73889;-75
2022/10/04 05:39:37;;;;;;;7.10;1.90;;;;;;;10.56;93.81;101481.03;107748;1279;71246;-75
2022/10/04 05:42:12;;;;;;;9.80;2.60;;;;;;;10.57;93.63;101473.02;107735;1279;72829;-76
2022/10/04 05:44:50;;;;;;;7.60;2.50;;;;;;;10.58;93.84;101473.40;107802;1279;63395;-75
2022/10/04 05:47:22;;;;;;;6.20;2.70;;;;;;;10.59;93.70;101475.26;107693;1280;60382;-75
2022/10/04 05:49:52;;;;;;;24.30;16.80;;;;;;;10.59;93.72;101478.08;107577;1281;75252;-75
2022/10/04 05:52:38;;;;;;;35.10;21.80;;;;;;;10.60;93.84;101473.34;107903;1279;71204;-75
2022/10/04 05:55:15;;;;;;;27.00;15.40;;;;;;;10.61;93.74;101473.08;107730;1281;74062;-75
2022/10/04 05:57:47;;;;;;;11.10;5.50;;;;;;;10.64;93.92;101468.28;107730;1279;61325;-75
2022/10/04 06:00:20;;;;;;;21.90;12.20;;;;;;;10.65;93.86;101467.81;107784;1279;60829;-75
2022/10/04 06:02:58;;;;;;;16.00;7.30;;;;;;;10.66;93.92;101463.80;107839;1269;74114;-73
2022/10/04 06:05:32;;;;;;;19.70;9.80;;;;;;;10.68;93.70;101466.02;107924;1278;71208;-73
2022/10/04 06:08:15;;;;;;;15.10;8.10;;;;;;;10.71;93.83;101464.15;107817;1278;72979;-73
2022/10/04 06:10:56;;;;;;;25.90;15.20;;;;;;;10.75;93.65;101465.53;107946;1277;62234;-75
2022/10/04 06:13:51;;;;;;;30.80;20.30;;;;;;;10.79;93.66;101465.05;107830;1277;62095;-75
2022/10/04 06:17:01;;;;;;;37.10;23.80;;;;;;;10.85;93.42;101473.01;107874;1277;75108;-74
2022/10/04 06:19:55;;;;;;;15.50;6.70;;;;;;;10.91;92.95;101475.41;107713;1268;71506;-74
2022/10/04 06:22:25;;;;;;;11.10;3.60;;;;;;;10.96;92.78;101481.39;108076;1276;72738;-74
2022/10/04 06:25:03;;;;;;;11.00;4.80;;;;;;;11.01;92.54;101481.36;108028;1275;62200;-74
2022/10/04 06:27:34;;;;;;;8.90;3.10;;;;;;;11.07;92.24;101481.54;107973;1276;60286;-74
2022/10/04 06:30:11;;;;;;;8.40;2.50;;;;;;;11.12;92.00;101486.89;108083;1276;73186;-74
2022/10/04 06:33:12;;;;;;;8.50;3.00;;;;;;;11.15;91.69;101490.23;108080;1276;71339;-74
2022/10/04 06:35:58;;;;;;;10.30;3.80;;;;;;;11.22;91.57;101488.99;108087;1276;73969;-74
2022/10/04 06:38:59;;;;;;;6.80;2.20;;;;;;;11.27;91.35;101487.02;108085;1276;62225;-74
2022/10/04 06:41:58;;;;;;;44.50;27.90;;;;;;;11.37;91.25;101493.60;108058;1274;59283;-74
2022/10/04 06:44:35;;;;;;;52.30;37.30;;;;;;;11.44;90.79;101492.33;108038;1276;75017;-74
2022/10/04 06:47:19;;;;;;;98.30;67.50;;;;;;;11.50;90.33;101494.27;108063;1276;71264;-74
2022/10/04 06:50:23;;;;;;;50.50;32.20;;;;;;;11.54;90.10;101494.19;108053;1276;74634;-74
2022/10/04 06:53:25;;;;;;;23.50;11.90;;;;;;;11.61;90.05;101499.09;107662;1276;61112;-74
2022/10/04 06:56:09;;;;;;;6.70;2.70;;;;;;;11.69;89.72;101499.44;108110;1276;60719;-74
2022/10/04 06:58:42;;;;;;;39.30;26.70;;;;;;;11.75;89.39;101497.60;108070;1275;75478;-74
2022/10/04 07:01:33;;;;;;;9.10;2.60;;;;;;;11.80;88.88;101495.21;108057;1276;71936;-74
2022/10/04 07:04:26;;;;;;;11.80;4.90;;;;;;;11.89;88.86;101500.09;107927;1276;73203;-74
2022/10/04 07:07:34;;;;;;;19.40;11.80;;;;;;;11.97;88.48;101498.86;108064;1276;64630;-74
2022/10/04 07:10:04;;;;;;;11.80;6.10;;;;;;;12.08;88.51;101500.54;108067;1276;59527;-74
2022/10/04 07:12:34;;;;;;;19.80;13.20;;;;;;;12.16;87.57;101498.51;108045;1276;75271;-74
2022/10/04 07:15:03;;;;;;;12.80;5.20;;;;;;;12.32;87.75;101495.13;108071;1276;73321;-74
2022/10/04 07:17:39;;;;;;;14.00;9.00;;;;;;;12.45;86.95;101491.69;108033;1274;74190;-74
2022/10/04 07:20:15;;;;;;;43.00;29.80;;;;;;;12.55;85.71;101485.32;107972;1276;62048;-74
2022/10/04 07:23:00;;;;;;;19.20;12.80;;;;;;;12.66;85.71;101485.48;107787;1278;60606;-74
2022/10/04 07:25:32;;;;;;;12.30;5.20;;;;;;;12.73;84.90;101484.73;107867;1278;75147;-74
2022/10/04 07:31:02;;;;;;;7.90;2.80;;;;;;;12.89;84.30;101475.91;107955;1277;72950;-74
2022/10/04 07:33:41;;;;;;;23.70;14.10;;;;;;;13.00;84.07;101481.00;107970;1277;63600;-74
2022/10/04 07:36:14;;;;;;;8.20;4.30;;;;;;;13.12;83.17;101483.76;107894;1277;60295;-74
2022/10/04 07:38:52;;;;;;;7.30;3.30;;;;;;;13.26;83.48;101482.90;107901;1277;75221;-74
2022/10/04 07:41:27;;;;;;;9.70;2.80;;;;;;;13.36;82.58;101487.80;107802;1277;72940;-74
2022/10/04 07:44:00;;;;;;;6.30;2.60;;;;;;;13.46;82.21;101486.58;107955;1277;72836;-74
2022/10/04 07:46:44;;;;;;;14.50;7.80;;;;;;;13.57;81.94;101488.64;107956;1277;61725;-74
2022/10/04 07:49:16;;;;;;;9.30;4.30;;;;;;;13.69;81.26;101487.85;107983;1277;60529;-75
2022/10/04 07:51:55;;;;;;;33.30;21.20;;;;;;;13.77;81.09;101490.45;107877;1278;75104;-74
2022/10/04 07:54:47;;;;;;;17.50;11.30;;;;;;;13.85;79.69;101491.80;107932;1270;71214;-74
2022/10/04 07:57:26;;;;;;;15.30;8.30;;;;;;;13.87;79.14;101496.63;108021;1276;74556;-74
2022/10/04 08:00:12;;;;;;;17.10;8.90;;;;;;;13.83;78.74;101495.42;107943;1276;63212;-74
2022/10/04 08:03:07;;;;;;;24.90;15.60;;;;;;;13.85;79.25;101497.57;107997;1276;60781;-74
2022/10/04 08:05:45;;;;;;;20.30;11.50;;;;;;;13.79;78.20;101498.41;108054;1276;74217;-74
2022/10/04 08:08:35;;;;;;;26.70;16.60;;;;;;;13.75;78.70;101496.01;107985;1276;72098;-74
2022/10/04 08:11:14;;;;;;;21.30;13.00;;;;;;;13.73;78.77;101498.20;108067;1276;72046;-74
2022/10/04 08:14:00;;;;;;;18.50;12.20;;;;;;;13.67;78.76;101496.61;108048;1276;60788;-74
2022/10/04 08:16:52;;;;;;;12.10;5.50;;;;;;;13.62;78.36;101492.34;107938;1276;61013;-74
2022/10/04 08:19:40;;;;;;;10.80;5.10;;;;;;;13.57;78.76;101495.58;108068;1276;73105;-74
2022/10/04 08:22:32;;;;;;;12.80;6.60;;;;;;;13.56;78.93;101499.32;108078;1276;71218;-74
2022/10/04 08:25:19;;;;;;;11.40;4.50;;;;;;;13.63;78.85;101494.24;107963;1276;73424;-74
2022/10/04 08:31:56;;;;;;;13.50;5.50;;;;;;;14.05;78.48;101489.93;108069;1276;60506;-74
2022/10/04 08:34:41;;;;;;;12.10;4.60;;;;;;;14.22;78.41;101488.16;108132;1276;73669;-74
2022/10/04 08:38:00;;;;;;;9.10;4.30;;;;;;;14.38;77.58;101483.46;108015;1276;71537;-74
2022/10/04 08:40:44;;;;;;;14.70;8.90;;;;;;;14.63;76.83;101482.91;107517;1276;72237;-74
2022/10/04 08:43:29;;;;;;;9.00;5.40;;;;;;;14.74;74.67;101479.36;108058;1276;60803;-74
2022/10/04 08:46:02;;;;;;;11.70;6.80;;;;;;;14.81;74.15;101482.56;108047;1276;61574;-74
2022/10/04 08:49:17;;;;;;;14.80;9.50;;;;;;;14.93;74.56;101480.53;108077;1276;75670;-74
2022/10/04 08:52:20;;;;;;;6.80;2.40;;;;;;;15.15;74.42;101479.23;108002;1276;71690;-74
2022/10/04 08:54:59;;;;;;;13.60;6.50;;;;;;;15.33;72.47;101479.95;107889;1277;73988;-74
2022/10/04 08:57:47;;;;;;;16.20;9.40;;;;;;;15.40;71.57;101482.44;107786;1279;63181;-74
2022/10/04 09:00:54;;;;;;;5.50;2.20;;;;;;;15.46;70.64;101489.11;107823;1279;62645;-74
2022/10/04 09:03:35;;;;;;;11.70;3.70;;;;;;;15.51;70.87;101488.92;107944;1278;74113;-73
2022/10/04 09:06:26;;;;;;;13.80;7.10;;;;;;;15.59;70.59;101491.40;107955;1274;72366;-72
2022/10/04 09:09:29;;;;;;;7.60;3.80;;;;;;;15.63;68.83;101492.34;107964;1276;73349;-73
2022/10/04 09:12:19;;;;;;;13.60;7.30;;;;;;;15.71;69.17;101485.77;107956;1276;63561;-73
2022/10/04 09:15:01;;;;;;;11.00;5.80;;;;;;;15.76;68.73;101483.80;108003;1276;59332;-74
2022/10/04 09:18:00;;;;;;;31.00;20.70;;;;;;;15.85;69.24;101482.33;107977;1276;76157;-74
2022/10/04 09:20:44;;;;;;;38.40;26.40;;;;;;;16.00;69.40;101476.41;107963;1276;71370;-74
2022/10/04 09:23:44;;;;;;;18.40;8.50;;;;;;;16.13;69.52;101479.39;107844;1279;72815;-74
2022/10/04 09:26:32;;;;;;;14.70;6.10;;;;;;;16.22;69.05;101478.02;107941;1276;61317;-73
2022/10/04 09:29:38;;;;;;;10.00;5.20;;;;;;;16.28;68.45;101480.74;108060;1276;60456;-73
2022/10/04 09:32:29;;;;;;;9.80;4.50;;;;;;;16.29;67.09;101482.29;108001;1276;75155;-74
2022/10/04 09:35:14;;;;;;;8.30;3.10;;;;;;;16.25;66.97;101482.86;107962;1276;71888;-74
2022/10/04 09:37:46;;;;;;;14.60;7.70;;;;;;;16.27;67.52;101481.11;107802;1279;72659;-74
2022/10/04 09:40:28;;;;;;;10.90;4.20;;;;;;;16.28;67.06;101479.59;107980;1276;62676;-74
2022/10/04 09:43:32;;;;;;;5.60;2.30;;;;;;;16.30;67.83;101469.52;108071;1276;60003;-73
2022/10/04 09:46:22;;;;;;;7.80;2.10;;;;;;;16.40;68.24;101471.04;108077;1276;74811;-74
2022/10/04 09:48:55;;;;;;;5.80;2.10;;;;;;;16.44;67.13;101476.66;108083;1276;73368;-73
2022/10/04 09:51:47;;;;;;;13.30;6.70;;;;;;;16.43;66.74;101469.37;107833;1279;73541;-73
2022/10/04 09:54:36;;;;;;;6.90;2.60;;;;;;;16.47;67.26;101462.52;107927;1277;62211;-73
2022/10/04 09:57:29;;;;;;;12.00;7.20;;;;;;;16.52;66.73;101463.33;107968;1276;59533;-73
2022/10/04 10:00:17;;;;;;;7.80;2.70;;;;;;;16.57;66.98;101462.67;108055;1276;74055;-73
2022/10/04 10:03:04;;;;;;;7.20;2.90;;;;;;;16.67;66.43;101465.45;107948;1276;71134;-73
2022/10/04 10:05:59;;;;;;;8.20;2.60;;;;;;;16.79;66.30;101466.11;108013;1276;73336;-73
2022/10/04 10:09:04;;;;;;;6.60;2.00;;;;;;;16.91;66.22;101462.20;107788;1278;63391;-74
2022/10/04 10:14:31;;;;;;;5.90;1.90;;;;;;;17.14;65.67;101453.23;107925;1279;74265;-73
2022/10/04 10:17:14;;;;;;;9.10;5.50;;;;;;;17.28;64.64;101448.13;107916;1279;70401;-73
2022/10/04 10:20:21;;;;;;;15.80;9.50;;;;;;;17.42;63.24;101449.88;107889;1279;73209;-73
2022/10/04 10:23:16;;;;;;;18.40;14.00;;;;;;;17.52;62.47;101443.18;107786;1278;63813;-73
2022/10/04 10:26:01;;;;;;;12.40;6.20;;;;;;;17.63;62.01;101443.33;107883;1279;60665;-73
2022/10/04 10:28:56;;;;;;;9.50;4.20;;;;;;;17.72;61.86;101437.58;107877;1279;73971;-73
2022/10/04 10:31:55;;;;;;;20.90;14.20;;;;;;;17.62;61.69;101442.13;107929;1279;71055;-73
2022/10/04 10:34:45;;;;;;;18.00;11.40;;;;;;;17.49;61.58;101452.08;107556;1279;73990;-74
2022/10/04 10:37:51;;;;;;;14.20;8.40;;;;;;;17.51;61.72;101455.80;107800;1279;63430;-74
2022/10/04 10:40:58;;;;;;;25.70;18.20;;;;;;;17.48;61.03;101451.75;107671;1281;61234;-74
2022/10/04 10:43:28;;;;;;;11.10;6.50;;;;;;;17.43;60.65;101448.18;107919;1278;75219;-73
2022/10/04 10:46:18;;;;;;;7.60;1.80;;;;;;;17.46;61.26;101444.98;107855;1279;71543;-73
2022/10/04 10:49:04;;;;;;;6.80;1.40;;;;;;;17.47;61.33;101445.64;107908;1278;73683;-73
2022/10/04 10:51:54;;;;;;;4.30;1.50;;;;;;;17.48;60.44;101448.61;107855;1279;61158;-72
2022/10/04 10:54:42;;;;;;;4.60;1.30;;;;;;;17.46;60.00;101442.34;107842;1279;61789;-72
2022/10/04 10:57:27;;;;;;;5.60;1.60;;;;;;;17.47;59.90;101428.43;107835;1279;74118;-72
2022/10/04 10:59:58;;;;;;;6.20;1.50;;;;;;;17.53;59.91;101425.96;107916;1278;72101;-72
2022/10/04 11:02:35;;;;;;;4.60;1.60;;;;;;;17.55;59.15;101422.60;107898;1279;72418;-72
2022/10/04 11:05:47;;;;;;;6.50;2.00;;;;;;;17.47;59.04;101422.66;107889;1279;62028;-72
2022/10/04 11:08:50;;;;;;;6.80;1.60;;;;;;;17.47;59.65;101422.48;107898;1277;60939;-72
2022/10/04 11:11:26;;;;;;;4.40;1.60;;;;;;;17.56;59.86;101413.64;107929;1279;73834;-72
2022/10/04 11:14:27;;;;;;;5.20;1.80;;;;;;;17.61;59.99;101412.36;107895;1278;73002;-72
2022/10/04 11:17:02;;;;;;;4.90;1.60;;;;;;;17.69;60.24;101401.64;107913;1279;73119;-73
2022/10/04 11:19:45;;;;;;;6.10;1.80;;;;;;;17.77;59.86;101402.27;107905;1279;59322;-72
2022/10/04 11:22:20;;;;;;;4.30;1.60;;;;;;;17.86;58.82;101399.33;107823;1279;62354;-72
2022/10/04 11:25:06;;;;;;;5.50;1.60;;;;;;;17.88;58.33;101404.79;107919;1278;75127;-72
2022/10/04 11:27:57;;;;;;;6.50;1.70;;;;;;;17.90;58.55;101403.27;107911;1278;71793;-72
2022/10/04 11:30:26;;;;;;;4.30;1.50;;;;;;;18.04;59.24;101406.04;107973;1279;72134;-72
2022/10/04 11:33:37;;;;;;;5.00;1.80;;;;;;;18.24;59.20;101400.31;107857;1278;60398;-72
2022/10/04 11:36:37;;;;;;;6.90;1.90;;;;;;;18.65;58.67;101392.17;107700;1279;60624;-72
2022/10/04 11:39:22;;;;;;;6.40;1.70;;;;;;;19.14;56.14;101387.98;107789;1279;74957;-72
2022/10/04 11:42:25;;;;;;;4.70;1.50;;;;;;;19.51;51.34;101388.14;107846;1279;71273;-72
2022/10/04 11:45:01;;;;;;;4.00;1.60;;;;;;;19.86;49.70;101382.73;107897;1277;71725;-72
2022/10/04 11:48:00;;;;;;;7.70;1.50;;;;;;;20.25;48.62;101385.83;107895;1279;61585;-72
2022/10/04 11:50:51;;;;;;;3.10;1.50;;;;;;;20.55;45.91;101386.30;107893;1279;60465;-72
2022/10/04 11:53:36;;;;;;;3.20;1.20;;;;;;;20.88;44.73;101381.71;107892;1279;74134;-73
2022/10/04 11:56:44;;;;;;;4.40;1.70;;;;;;;21.10;44.95;101373.59;107892;1279;72720;-72
2022/10/04 11:59:26;;;;;;;4.50;1.70;;;;;;;21.53;44.70;101367.18;107873;1278;74432;-73
2022/10/04 12:02:15;;;;;;;4.60;1.70;;;;;;;22.00;43.72;101375.92;107823;1279;60380;-73
2022/10/04 12:04:54;;;;;;;4.10;1.30;;;;;;;22.41;42.80;101367.57;107816;1270;62218;-73
2022/10/04 12:07:25;;;;;;;4.30;1.40;;;;;;;22.92;42.21;101360.16;107754;1277;75376;-73
2022/10/04 12:09:57;;;;;;;4.20;1.60;;;;;;;23.51;41.25;101364.64;108096;1276;72750;-73
2022/10/04 12:13:05;;;;;;;4.30;1.70;;;;;;;24.08;39.73;101362.06;107960;1278;72980;-74
2022/10/04 12:15:58;;;;;;;3.90;1.50;;;;;;;24.91;37.96;101362.24;107262;1283;60398;-72
2022/10/04 12:18:50;;;;;;;4.60;1.50;;;;;;;25.91;36.73;101350.81;107453;1283;60822;-73
2022/10/04 12:21:39;;;;;;;4.50;1.40;;;;;;;26.77;35.07;101338.75;107485;1282;72604;-73
2022/10/04 12:24:25;;;;;;;4.20;1.60;;;;;;;27.58;33.76;101336.75;107889;1276;71116;-73
2022/10/04 12:27:02;;;;;;;4.20;1.50;;;;;;;28.13;32.25;101333.74;107790;1278;73110;-72